createdAt,value
2022-08-05T00:02:22.184Z,49.40
2022-08-05T00:04:55.165Z,49.50
2022-08-05T00:07:59.663Z,49.28
2022-08-05T00:10:10.210Z,49.71
2022-08-05T00:12:55.808Z,49.73
2022-08-05T00:15:55.042Z,49.59
2022-08-05T00:18:21.359Z,49.54
2022-08-05T00:20:50.254Z,49.90
2022-08-05T00:23:17.361Z,50.06
2022-08-05T00:26:04.609Z,50.14
2022-08-05T00:28:31.302Z,49.95
2022-08-05T00:31:02.870Z,50.17
2022-08-05T00:34:56.994Z,50.19
2022-08-05T00:37:12.294Z,49.82
2022-08-05T00:39:05.577Z,49.88
2022-08-05T00:41:51.858Z,49.83
2022-08-05T00:44:30.562Z,50.13
2022-08-05T00:47:01.651Z,50.13
2022-08-05T00:49:32.565Z,50.29
2022-08-05T00:52:00.247Z,50.35
2022-08-05T00:54:28.058Z,50.08
2022-08-05T00:56:56.960Z,50.30
2022-08-05T00:59:23.878Z,50.86
2022-08-05T01:01:51.194Z,50.40
2022-08-05T01:04:20.089Z,50.83
2022-08-05T01:06:53.683Z,50.61
2022-08-05T01:09:22.714Z,50.87
2022-08-05T01:11:53.765Z,51.18
2022-08-05T01:14:37.282Z,51.22
2022-08-05T01:17:10.896Z,51.18
2022-08-05T01:20:07.804Z,51.25
2022-08-05T01:22:59.778Z,51.23
2022-08-05T01:26:01.264Z,50.92
2022-08-05T01:28:37.193Z,51.44
2022-08-05T01:31:28.072Z,51.51
2022-08-05T01:34:00.951Z,51.30
2022-08-05T01:36:32.783Z,51.75
2022-08-05T01:39:01.349Z,51.98
2022-08-05T01:41:32.765Z,51.82
2022-08-05T01:44:02.217Z,51.79
2022-08-05T01:46:46.166Z,52.32
2022-08-05T01:49:23.742Z,52.13
2022-08-05T01:51:58.398Z,51.82
2022-08-05T01:54:31.831Z,52.12
2022-08-05T01:58:11.255Z,51.88
2022-08-05T01:59:51.761Z,52.11
2022-08-05T02:02:26.255Z,52.03
2022-08-05T02:04:59.985Z,52.18
2022-08-05T02:07:27.232Z,52.29
2022-08-05T02:09:57.709Z,52.50
2022-08-05T02:12:37.565Z,52.97
2022-08-05T02:15:12.281Z,52.70
2022-08-05T02:18:32.611Z,52.88
2022-08-05T02:20:58.682Z,53.32
2022-08-05T02:23:33.742Z,53.23
2022-08-05T02:26:05.347Z,53.20
2022-08-05T02:28:38.401Z,53.33
2022-08-05T02:31:14.777Z,53.22
2022-08-05T02:33:57.236Z,53.44
2022-08-05T02:36:27.524Z,53.54
2022-08-05T02:38:57.588Z,54.02
2022-08-05T02:41:28.998Z,53.80
2022-08-05T02:44:13.386Z,54.15
2022-08-05T02:46:53.807Z,54.22
2022-08-05T02:49:36.448Z,53.96
2022-08-05T02:52:11.603Z,54.38
2022-08-05T02:54:42.803Z,54.10
2022-08-05T02:58:12.160Z,54.29
2022-08-05T03:00:09.941Z,54.53
2022-08-05T03:02:42.803Z,54.26
2022-08-05T03:05:11.287Z,54.61
2022-08-05T03:08:06.648Z,54.82
2022-08-05T03:10:28.004Z,54.60
2022-08-05T03:12:55.004Z,54.75
2022-08-05T03:15:24.845Z,54.54
2022-08-05T03:17:55.815Z,54.54
2022-08-05T03:20:23.633Z,54.55
2022-08-05T03:22:52.238Z,54.60
2022-08-05T03:25:34.137Z,54.66
2022-08-05T03:28:08.769Z,54.61
2022-08-05T03:30:38.339Z,54.67
2022-08-05T03:33:08.358Z,54.63
2022-08-05T03:35:41.283Z,54.45
2022-08-05T03:38:11.845Z,54.54
2022-08-05T03:40:45.218Z,55.11
2022-08-05T03:44:08.168Z,54.62
2022-08-05T03:46:02.949Z,54.96
2022-08-05T03:48:30.833Z,55.02
2022-08-05T03:52:36.559Z,54.74
2022-08-05T03:56:01.887Z,55.02
2022-08-05T03:57:45.742Z,55.08
2022-08-05T04:00:15.520Z,55.17
2022-08-05T04:02:52.007Z,55.22
2022-08-05T04:05:33.963Z,55.07
2022-08-05T04:08:29.628Z,55.03
2022-08-05T04:10:54.987Z,55.12
2022-08-05T04:13:21.942Z,54.86
2022-08-05T04:16:03.232Z,55.28
2022-08-05T04:18:34.347Z,54.52
2022-08-05T04:21:02.254Z,54.40
2022-08-05T04:24:05.452Z,54.38
2022-08-05T04:26:18.487Z,54.19
2022-08-05T04:28:50.782Z,54.64
2022-08-05T04:31:18.131Z,53.99
2022-08-05T04:34:18.104Z,54.04
2022-08-05T04:36:46.304Z,54.07
2022-08-05T04:39:21.068Z,53.84
2022-08-05T04:41:50.965Z,53.06
2022-08-05T04:44:29.134Z,52.91
2022-08-05T04:46:56.752Z,52.21
2022-08-05T04:49:38.722Z,52.26
2022-08-05T04:52:11.838Z,52.02
2022-08-05T04:54:38.601Z,52.28
2022-08-05T04:57:05.362Z,51.61
2022-08-05T04:59:36.838Z,51.85
2022-08-05T05:02:41.478Z,51.20
2022-08-05T05:05:01.899Z,51.31
2022-08-05T05:07:32.846Z,51.37
2022-08-05T05:10:05.520Z,51.06
2022-08-05T05:12:33.366Z,50.61
2022-08-05T05:15:03.869Z,50.84
2022-08-05T05:17:55.656Z,50.90
2022-08-05T05:20:28.766Z,50.20
2022-08-05T05:22:56.191Z,50.09
2022-08-05T05:25:40.390Z,49.68
2022-08-05T05:28:07.777Z,49.56
2022-08-05T05:30:36.248Z,49.71
2022-08-05T05:33:14.045Z,49.52
2022-08-05T05:35:47.085Z,49.55
2022-08-05T05:38:22.806Z,49.35
2022-08-05T05:40:54.169Z,49.36
2022-08-05T05:43:54.078Z,49.10
2022-08-05T05:46:17.360Z,49.04
2022-08-05T05:48:47.841Z,48.86
2022-08-05T05:51:19.471Z,48.82
2022-08-05T05:53:58.058Z,48.82
2022-08-05T05:56:32.528Z,48.56
2022-08-05T05:59:10.024Z,48.41
2022-08-05T06:01:57.563Z,48.25
2022-08-05T06:04:25.148Z,48.16
2022-08-05T06:06:52.820Z,48.10
2022-08-05T06:09:25.428Z,47.83
2022-08-05T06:12:01.696Z,47.71
2022-08-05T06:14:30.556Z,47.40
2022-08-05T06:16:57.912Z,47.30
2022-08-05T06:19:26.181Z,47.49
2022-08-05T06:22:01.600Z,47.40
2022-08-05T06:24:28.276Z,47.15
2022-08-05T06:26:55.098Z,46.89
2022-08-05T06:29:43.085Z,46.97
2022-08-05T06:32:21.239Z,46.54
2022-08-05T06:34:58.002Z,46.67
2022-08-05T06:37:56.671Z,46.66
2022-08-05T06:40:13.962Z,45.97
2022-08-05T06:42:45.777Z,46.23
2022-08-05T06:45:20.698Z,46.01
2022-08-05T06:48:46.891Z,45.60
2022-08-05T06:50:35.327Z,45.50
2022-08-05T06:53:11.284Z,45.63
2022-08-05T06:55:38.548Z,45.51
2022-08-05T06:58:20.162Z,45.06
2022-08-05T07:00:59.646Z,44.85
2022-08-05T07:03:32.404Z,45.35
2022-08-05T07:06:06.196Z,44.83
2022-08-05T07:08:42.919Z,44.80
2022-08-05T07:11:15.888Z,44.40
2022-08-05T07:14:02.017Z,44.67
2022-08-05T07:17:58.330Z,44.23
2022-08-05T07:22:29.134Z,43.99
2022-08-05T07:25:22.444Z,44.25
2022-08-05T07:27:58.047Z,43.62
2022-08-05T07:30:38.416Z,43.15
2022-08-05T07:33:10.653Z,43.31
2022-08-05T07:36:02.606Z,43.01
2022-08-05T07:38:34.399Z,43.15
2022-08-05T07:42:07.027Z,42.67
2022-08-05T07:43:56.908Z,42.28
2022-08-05T07:46:27.802Z,42.22
2022-08-05T07:49:04.973Z,41.70
2022-08-05T07:51:37.421Z,41.06
2022-08-05T07:54:08.348Z,40.62
2022-08-05T07:56:39.050Z,40.41
2022-08-05T07:59:38.393Z,40.77
2022-08-05T08:02:17.024Z,40.22
2022-08-05T08:04:46.529Z,40.01
2022-08-05T08:07:15.244Z,40.31
2022-08-05T08:09:42.453Z,40.27
2022-08-05T08:12:33.508Z,40.32
2022-08-05T08:14:56.702Z,40.06
2022-08-05T08:17:29.110Z,39.88
2022-08-05T08:20:21.496Z,39.85
2022-08-05T08:22:46.200Z,39.54
2022-08-05T08:25:16.266Z,39.50
2022-08-05T08:27:51.300Z,38.90
2022-08-05T08:30:34.160Z,37.43
2022-08-05T08:33:13.724Z,37.19
2022-08-05T08:35:52.796Z,36.71
2022-08-05T08:38:35.875Z,36.87
2022-08-05T08:41:14.248Z,36.67
2022-08-05T08:45:19.919Z,36.07
2022-08-05T08:46:31.941Z,35.96
2022-08-05T08:49:17.403Z,35.73
2022-08-05T08:52:03.909Z,34.88
2022-08-05T08:54:34.166Z,34.58
2022-08-05T08:57:05.614Z,33.90
2022-08-05T08:59:41.882Z,32.59
2022-08-05T09:02:16.567Z,31.15
2022-08-05T09:04:58.235Z,29.63
2022-08-05T09:07:39.454Z,29.10
2022-08-05T09:10:20.817Z,27.98
2022-08-05T09:12:54.107Z,27.12
2022-08-05T09:15:22.291Z,27.38
2022-08-05T09:17:53.109Z,25.79
2022-08-05T09:20:36.163Z,24.74
2022-08-05T09:23:19.494Z,23.48
2022-08-05T09:26:01.830Z,21.27
2022-08-05T09:28:33.553Z,19.92
2022-08-05T09:31:22.299Z,18.75
2022-08-05T09:34:03.944Z,18.45
2022-08-05T09:37:00.639Z,17.96
2022-08-05T09:39:45.037Z,17.34
2022-08-05T09:42:24.352Z,16.79
2022-08-05T09:45:03.217Z,15.79
2022-08-05T09:47:55.611Z,14.85
2022-08-05T09:50:38.489Z,14.10
2022-08-05T09:53:15.760Z,13.89
2022-08-05T09:56:12.620Z,13.30
2022-08-05T09:58:42.056Z,12.53
2022-08-05T10:01:14.801Z,12.54
2022-08-05T10:03:58.483Z,12.42
2022-08-05T10:06:31.063Z,12.27
2022-08-05T10:09:27.853Z,12.26
2022-08-05T10:11:55.357Z,12.28
2022-08-05T10:14:32.118Z,11.73
2022-08-05T10:17:37.387Z,11.14
2022-08-05T10:20:09.764Z,10.97
2022-08-05T10:22:38.073Z,10.66
2022-08-05T10:25:10.413Z,10.87
2022-08-05T10:28:13.146Z,10.54
2022-08-05T10:32:46.714Z,9.61
2022-08-05T10:33:18.456Z,9.15
2022-08-05T10:35:59.641Z,10.05
2022-08-05T10:38:28.943Z,10.14
2022-08-05T10:41:23.251Z,9.46
2022-08-05T10:44:11.478Z,9.84
2022-08-05T10:46:54.400Z,9.11
2022-08-05T10:49:26.922Z,8.77
2022-08-05T10:52:00.411Z,8.14
2022-08-05T10:55:10.258Z,8.76
2022-08-05T10:57:44.729Z,8.85
2022-08-05T11:00:19.112Z,8.64
2022-08-05T11:03:24.924Z,8.69
2022-08-05T11:06:15.266Z,8.06
2022-08-05T11:09:45.224Z,8.64
2022-08-05T11:12:27.168Z,8.38
2022-08-05T11:16:00.174Z,7.75
2022-08-05T11:18:34.064Z,8.27
2022-08-05T11:21:06.380Z,8.51
2022-08-05T11:24:03.031Z,8.31
2022-08-05T11:26:33.379Z,7.69
2022-08-05T11:29:11.532Z,7.89
2022-08-05T11:31:58.243Z,8.16
2022-08-05T11:34:39.032Z,8.05
2022-08-05T11:38:28.479Z,8.07
2022-08-05T11:39:55.230Z,8.42
2022-08-05T11:42:28.096Z,8.41
2022-08-05T11:45:05.465Z,8.50
2022-08-05T11:47:49.582Z,8.13
2022-08-05T11:50:17.964Z,8.18
2022-08-05T11:52:48.446Z,8.54
2022-08-05T11:55:16.352Z,8.84
2022-08-05T11:58:09.352Z,8.99
2022-08-05T12:00:38.051Z,9.46
2022-08-05T12:03:24.024Z,9.04
2022-08-05T12:06:01.040Z,9.05
2022-08-05T12:08:27.805Z,9.44
2022-08-05T12:11:00.108Z,8.63
2022-08-05T12:13:48.593Z,9.28
2022-08-05T12:16:19.491Z,9.42
2022-08-05T12:18:52.406Z,9.03
2022-08-05T12:21:29.794Z,8.56
2022-08-05T12:24:06.915Z,8.45
2022-08-05T12:26:39.827Z,7.75
2022-08-05T12:29:16.236Z,8.12
2022-08-05T12:31:52.997Z,7.95
2022-08-05T12:34:23.923Z,8.22
2022-08-05T12:36:53.852Z,8.62
2022-08-05T12:39:20.910Z,8.65
2022-08-05T12:41:48.691Z,8.51
2022-08-05T12:44:21.650Z,8.13
2022-08-05T12:47:00.361Z,8.46
2022-08-05T12:50:03.537Z,7.88
2022-08-05T12:52:38.000Z,7.64
2022-08-05T12:55:21.767Z,7.53
2022-08-05T12:58:49.515Z,7.99
2022-08-05T13:02:01.238Z,8.07
2022-08-05T13:03:32.205Z,8.12
2022-08-05T13:06:00.829Z,7.90
2022-08-05T13:08:30.208Z,8.24
2022-08-05T13:11:05.740Z,8.27
2022-08-05T13:14:05.171Z,8.76
2022-08-05T13:16:19.996Z,8.54
2022-08-05T13:18:59.524Z,8.50
2022-08-05T13:21:37.641Z,8.95
2022-08-05T13:24:08.934Z,9.16
2022-08-05T13:26:35.948Z,9.76
2022-08-05T13:29:02.872Z,9.73
2022-08-05T13:32:03.451Z,10.05
2022-08-05T13:34:21.306Z,9.94
2022-08-05T13:36:51.122Z,9.72
2022-08-05T13:40:12.752Z,10.09
2022-08-05T13:42:04.658Z,11.05
2022-08-05T13:44:34.817Z,9.88
2022-08-05T13:47:08.305Z,10.36
2022-08-05T13:49:35.683Z,9.88
2022-08-05T13:52:12.708Z,9.29
2022-08-05T13:54:40.126Z,9.80
2022-08-05T13:57:07.140Z,10.24
2022-08-05T13:59:33.860Z,9.65
2022-08-05T14:02:06.177Z,10.06
2022-08-05T14:05:00.720Z,11.09
2022-08-05T14:08:00.832Z,10.30
2022-08-05T14:10:30.713Z,10.47
2022-08-05T14:12:58.392Z,10.79
2022-08-05T14:16:05.573Z,10.73
2022-08-05T14:18:15.295Z,10.20
2022-08-05T14:20:47.869Z,10.74
2022-08-05T14:23:24.568Z,11.11
2022-08-05T14:25:58.156Z,11.27
2022-08-05T14:28:27.764Z,11.05
2022-08-05T14:30:56.561Z,11.61
2022-08-05T14:33:24.023Z,11.45
2022-08-05T14:35:52.299Z,12.45
2022-08-05T14:38:33.126Z,12.50
2022-08-05T14:41:07.661Z,12.84
2022-08-05T14:43:57.648Z,13.69
2022-08-05T14:46:28.698Z,14.89
2022-08-05T14:48:59.034Z,14.40
2022-08-05T14:51:31.251Z,14.69
2022-08-05T14:54:26.903Z,16.13
2022-08-05T14:56:47.209Z,16.03
2022-08-05T14:59:15.303Z,16.17
2022-08-05T15:01:47.947Z,16.09
2022-08-05T15:04:17.278Z,17.43
2022-08-05T15:06:49.239Z,17.44
2022-08-05T15:09:52.069Z,17.58
2022-08-05T15:12:05.586Z,17.75
2022-08-05T15:14:34.525Z,18.07
2022-08-05T15:17:04.912Z,19.03
2022-08-05T15:19:32.544Z,18.88
2022-08-05T15:22:01.398Z,19.10
2022-08-05T15:24:28.990Z,18.92
2022-08-05T15:26:55.879Z,19.34
2022-08-05T15:29:23.664Z,20.10
2022-08-05T15:31:56.667Z,19.81
2022-08-05T15:34:32.141Z,19.47
2022-08-05T15:37:04.897Z,20.38
2022-08-05T15:41:01.897Z,20.48
2022-08-05T15:42:54.521Z,21.18
2022-08-05T15:45:09.884Z,21.03
2022-08-05T15:47:36.701Z,20.88
2022-08-05T15:50:04.367Z,21.06
2022-08-05T15:52:53.460Z,21.43
2022-08-05T15:55:25.008Z,21.65
2022-08-05T15:58:16.354Z,21.44
2022-08-05T16:01:03.555Z,21.64
2022-08-05T16:03:32.597Z,21.68
2022-08-05T16:06:00.618Z,21.91
2022-08-05T16:08:30.826Z,22.44
2022-08-05T16:10:58.534Z,22.39
2022-08-05T16:13:34.359Z,22.00
2022-08-05T16:16:05.480Z,22.35
2022-08-05T16:18:35.907Z,21.99
2022-08-05T16:21:19.010Z,22.16
2022-08-05T16:23:54.172Z,22.31
2022-08-05T16:26:26.378Z,22.41
2022-08-05T16:28:55.514Z,22.57
2022-08-05T16:31:23.067Z,22.71
2022-08-05T16:33:52.401Z,22.99
2022-08-05T16:36:23.829Z,23.49
2022-08-05T16:38:55.071Z,23.32
2022-08-05T16:42:14.592Z,23.19
2022-08-05T16:44:11.567Z,23.36
2022-08-05T16:46:41.189Z,23.54
2022-08-05T16:49:22.668Z,23.27
2022-08-05T16:51:51.057Z,23.83
2022-08-05T16:54:27.503Z,24.32
2022-08-05T16:56:58.661Z,24.81
2022-08-05T16:59:25.405Z,24.95
2022-08-05T17:01:56.376Z,24.97
2022-08-05T17:04:27.965Z,25.07
2022-08-05T17:07:03.434Z,25.19
2022-08-05T17:09:57.678Z,26.04
2022-08-05T17:12:51.781Z,26.21
2022-08-05T17:15:15.589Z,26.37
2022-08-05T17:17:44.010Z,26.87
2022-08-05T17:20:14.847Z,27.22
2022-08-05T17:22:43.126Z,27.63
2022-08-05T17:25:33.786Z,27.69
2022-08-05T17:27:58.970Z,27.97
2022-08-05T17:30:28.322Z,29.13
2022-08-05T17:32:56.919Z,29.07
2022-08-05T17:35:23.651Z,29.15
2022-08-05T17:37:51.455Z,29.46
2022-08-05T17:40:18.974Z,30.03
2022-08-05T17:42:51.872Z,30.11
2022-08-05T17:45:38.075Z,30.21
2022-08-05T17:48:08.221Z,30.41
2022-08-05T17:50:35.081Z,31.17
2022-08-05T17:53:04.861Z,31.50
2022-08-05T17:55:38.201Z,31.73
2022-08-05T17:58:13.391Z,32.28
2022-08-05T18:00:44.947Z,32.19
2022-08-05T18:03:33.440Z,33.18
2022-08-05T18:06:05.083Z,33.10
2022-08-05T18:08:33.805Z,33.55
2022-08-05T18:11:03.232Z,33.33
2022-08-05T18:13:36.465Z,33.73
2022-08-05T18:16:04.154Z,34.26
2022-08-05T18:18:33.759Z,34.43
2022-08-05T18:21:13.354Z,34.39
2022-08-05T18:23:47.231Z,34.86
2022-08-05T18:26:14.050Z,35.01
2022-08-05T18:28:46.340Z,35.04
2022-08-05T18:31:13.390Z,35.20
2022-08-05T18:33:47.062Z,35.45
2022-08-05T18:36:16.951Z,35.59
2022-08-05T18:38:46.608Z,36.34
2022-08-05T18:41:57.291Z,36.58
2022-08-05T18:44:06.568Z,36.78
2022-08-05T18:46:34.684Z,36.73
2022-08-05T18:49:21.799Z,36.78
2022-08-05T18:52:08.507Z,36.54
2022-08-05T18:54:41.395Z,36.60
2022-08-05T18:57:15.205Z,36.96
2022-08-05T19:00:01.822Z,37.21
2022-08-05T19:02:29.287Z,37.40
2022-08-05T19:05:02.445Z,37.71
2022-08-05T19:07:48.221Z,37.89
2022-08-05T19:10:19.114Z,38.06
2022-08-05T19:12:55.176Z,37.92
2022-08-05T19:15:57.844Z,38.38
2022-08-05T19:18:13.431Z,38.64
2022-08-05T19:20:48.617Z,38.55
2022-08-05T19:24:05.881Z,38.91
2022-08-05T19:26:02.893Z,38.94
2022-08-05T19:28:32.854Z,39.07
2022-08-05T19:31:01.277Z,39.24
2022-08-05T19:33:36.341Z,39.37
2022-08-05T19:36:06.591Z,39.69
2022-08-05T19:38:36.677Z,40.11
2022-08-05T19:41:07.016Z,40.00
2022-08-05T19:44:07.073Z,39.84
2022-08-05T19:46:30.038Z,40.22
2022-08-05T19:49:03.433Z,40.29
2022-08-05T19:52:05.439Z,40.89
2022-08-05T19:54:26.761Z,40.72
2022-08-05T19:57:02.135Z,40.80
2022-08-05T20:00:00.647Z,41.20
2022-08-05T20:02:17.868Z,41.32
2022-08-05T20:04:46.029Z,41.75
2022-08-05T20:07:14.099Z,41.76
2022-08-05T20:09:55.193Z,42.31
2022-08-05T20:12:24.577Z,42.04
2022-08-05T20:14:52.997Z,42.63
2022-08-05T20:17:23.544Z,42.84
2022-08-05T20:19:51.116Z,42.61
2022-08-05T20:22:24.107Z,43.07
2022-08-05T20:24:53.817Z,42.99
2022-08-05T20:27:26.897Z,43.51
2022-08-05T20:29:57.602Z,43.56
2022-08-05T20:32:26.786Z,43.97
2022-08-05T20:34:54.128Z,44.25
2022-08-05T20:38:04.678Z,44.30
2022-08-05T20:40:09.144Z,44.77
2022-08-05T20:42:35.943Z,44.81
2022-08-05T20:45:04.224Z,45.24
2022-08-05T20:47:32.712Z,44.82
2022-08-05T20:50:02.113Z,45.53
2022-08-05T20:52:29.747Z,45.35
2022-08-05T20:54:59.474Z,45.25
2022-08-05T20:57:43.894Z,45.39
2022-08-05T21:00:40.743Z,45.57
2022-08-05T21:03:06.123Z,45.41
2022-08-05T21:05:47.937Z,45.31
2022-08-05T21:08:21.347Z,46.13
2022-08-05T21:10:55.190Z,46.27
2022-08-05T21:13:26.133Z,45.90
2022-08-05T21:16:12.563Z,46.25
2022-08-05T21:18:39.280Z,46.62
2022-08-05T21:21:11.865Z,46.72
2022-08-05T21:23:38.888Z,46.83
2022-08-05T21:26:12.508Z,46.68
2022-08-05T21:28:47.905Z,46.27
2022-08-05T21:31:18.201Z,46.44
2022-08-05T21:33:47.522Z,46.75
2022-08-05T21:36:27.542Z,46.40
2022-08-05T21:38:56.950Z,46.57
2022-08-05T21:41:26.089Z,46.49
2022-08-05T21:44:01.474Z,46.97
2022-08-05T21:46:31.287Z,47.17
2022-08-05T21:48:59.872Z,47.58
2022-08-05T21:52:23.004Z,47.55
2022-08-05T21:54:13.395Z,47.51
2022-08-05T21:56:44.461Z,47.60
2022-08-05T21:59:24.120Z,47.61
2022-08-05T22:01:54.529Z,47.56
2022-08-05T22:04:25.354Z,47.61
2022-08-05T22:06:52.646Z,47.92
2022-08-05T22:09:21.008Z,48.45
2022-08-05T22:11:48.628Z,48.37
2022-08-05T22:14:35.029Z,48.08
2022-08-05T22:17:07.005Z,48.36
2022-08-05T22:20:00.867Z,48.22
2022-08-05T22:22:27.987Z,48.58
2022-08-05T22:25:21.849Z,48.30
2022-08-05T22:28:09.298Z,48.88
2022-08-05T22:30:56.187Z,48.51
2022-08-05T22:33:55.479Z,48.48
2022-08-05T22:36:14.455Z,48.45
2022-08-05T22:38:42.671Z,48.59
2022-08-05T22:41:10.319Z,48.87
2022-08-05T22:43:40.916Z,49.26
2022-08-05T22:46:13.630Z,49.06
2022-08-05T22:48:50.135Z,49.04
2022-08-05T22:51:23.229Z,49.45
2022-08-05T22:54:04.367Z,49.27
2022-08-05T22:56:31.506Z,49.64
2022-08-05T22:59:04.617Z,49.58
2022-08-05T23:01:50.977Z,49.88
2022-08-05T23:04:33.223Z,49.79
2022-08-05T23:07:00.199Z,50.27
2022-08-05T23:09:58.400Z,50.43
2022-08-05T23:12:16.369Z,50.22
2022-08-05T23:14:43.810Z,50.40
2022-08-05T23:17:34.178Z,50.60
2022-08-05T23:20:15.567Z,50.73
2022-08-05T23:22:47.146Z,50.79
2022-08-05T23:25:17.019Z,50.43
2022-08-05T23:28:03.048Z,50.40
2022-08-05T23:30:31.297Z,50.95
2022-08-05T23:32:58.169Z,50.98
2022-08-05T23:35:28.671Z,50.71
2022-08-05T23:38:02.001Z,50.92
2022-08-05T23:40:28.878Z,51.43
2022-08-05T23:42:55.793Z,50.99
2022-08-05T23:45:23.674Z,51.15
2022-08-05T23:47:53.658Z,51.10
2022-08-05T23:50:21.129Z,51.05
2022-08-05T23:52:50.534Z,51.28
2022-08-05T23:55:19.993Z,51.54
2022-08-05T23:57:51.027Z,51.58
